Culverden, New Zealand
Current Conditions -  °F | °C
As of 7:00 AM on Friday 24 Oct 2014 (Local Time) from NZCH Reporting Station
Few Clouds Few Clouds  
Wind Chill: 40°   Ceiling: Unl
Heat Index: 46°   Visibility: 6mi
Dew Point: 39°   Wind: 15mph
Humidity: 76%   Direction: 210°SSW
Pressure: 29.91"   Gusts: NA
Location:  42.77°S, 172.86°E
Report Text: NZCH 231900Z AUTO 21013KT 9999 FEW090/// 08/04 Q1013 BECMG20020G30KT
Loading
Personal Weather Stations






























Interactive Weather Map
Tropical Storm Tracking
New forecast layout! Learn more

10-Day Weather Forecast

Advertisements
Track Severe Weather on mobile